This is the latest recevied weather packets stored in our database for station/object F5SAW-10. If no packets are shown the sender has not sent any weather packets the latest 10 day(s).
| Time | Temp. | Humidity | Pressure | Rain* | Wind** | Luminosity | Snow |
|---|---|---|---|---|---|---|---|
| 1778222784 | 25° C | 36% | 976.4 hPa | - | - | - | - |
| 1778221884 | 24.44° C | 37% | 976.3 hPa | - | - | - | - |
| 1778220983 | 23.33° C | 42% | 976.3 hPa | - | - | - | - |
| 1778220083 | 18.33° C | 53% | 976.3 hPa | - | - | - | - |
| 1778179588 | 26.11° C | 36% | 976.4 hPa | - | - | - | - |
| 1778178688 | 26.11° C | 36% | 976.3 hPa | - | - | - | - |
| 1778177788 | 26.11° C | 35% | 976.3 hPa | - | - | - | - |
| 1778176888 | 26.11° C | 36% | 976.1 hPa | - | - | - | - |
| 1778175988 | 26.11° C | 35% | 976.2 hPa | - | - | - | - |
| 1778175087 | 26.11° C | 35% | 976 hPa | - | - | - | - |
| 1778174187 | 26.11° C | 35% | 976.1 hPa | - | - | - | - |
| 1778173287 | 26.11° C | 36% | 976.2 hPa | - | - | - | - |
| 1778172387 | 26.11° C | 36% | 976.3 hPa | - | - | - | - |
| 1778171487 | 26.11° C | 35% | 976.2 hPa | - | - | - | - |
| 1778170587 | 26.11° C | 35% | 976.1 hPa | - | - | - | - |
| 1778169687 | 26.11° C | 35% | 976.1 hPa | - | - | - | - |
| 1778168788 | 26.11° C | 35% | 976 hPa | - | - | - | - |
| 1778168787 | 26.11° C | 35% | 976 hPa | - | - | - | - |
| 1778167887 | 26.67° C | 34% | 976.1 hPa | - | - | - | - |
| 1778166986 | 26.67° C | 34% | 976.2 hPa | - | - | - | - |
| 1778166086 | 26.67° C | 34% | 976.3 hPa | - | - | - | - |
| 1778165186 | 26.11° C | 35% | 976.4 hPa | - | - | - | - |
| 1778164286 | 26.11° C | 35% | 976.6 hPa | - | - | - | - |
| 1778163386 | 26.11° C | 35% | 976.7 hPa | - | - | - | - |
| 1778162486 | 26.11° C | 35% | 976.8 hPa | - | - | - | - |
* Rain since midnight (hover to see other rain measurements)
** Current wind speed in m/s (hover to see current wind gust speed)